sensor_id;sensor_type;location;lat;lon;timestamp;pressure;altitude;pressure_sealevel;temperature;humidity
52535;BME280;38443;53.164;5.802;2023-07-20T00:01:26;101603.13;;;13.29;100.00
52535;BME280;38443;53.164;5.802;2023-07-20T00:03:52;101598.00;;;13.21;100.00
52535;BME280;38443;53.164;5.802;2023-07-20T00:06:22;101598.94;;;13.18;100.00
52535;BME280;38443;53.164;5.802;2023-07-20T00:08:48;101599.25;;;13.08;100.00
52535;BME280;38443;53.164;5.802;2023-07-20T00:11:14;101608.38;;;13.01;100.00
52535;BME280;38443;53.164;5.802;2023-07-20T00:13:40;101600.50;;;12.94;100.00
52535;BME280;38443;53.164;5.802;2023-07-20T00:16:06;101601.59;;;12.87;100.00
52535;BME280;38443;53.164;5.802;2023-07-20T00:18:32;101601.75;;;12.81;100.00
52535;BME280;38443;53.164;5.802;2023-07-20T00:20:58;101616.22;;;12.75;100.00
52535;BME280;38443;53.164;5.802;2023-07-20T00:23:26;101610.09;;;12.70;100.00
52535;BME280;38443;53.164;5.802;2023-07-20T00:25:51;101611.91;;;12.70;100.00
52535;BME280;38443;53.164;5.802;2023-07-20T00:28:17;101617.34;;;12.67;100.00
52535;BME280;38443;53.164;5.802;2023-07-20T00:30:43;101618.31;;;12.64;100.00
52535;BME280;38443;53.164;5.802;2023-07-20T00:33:10;101612.13;;;12.61;100.00
52535;BME280;38443;53.164;5.802;2023-07-20T00:35:37;101624.69;;;12.58;100.00
52535;BME280;38443;53.164;5.802;2023-07-20T00:38:03;101607.88;;;12.52;100.00
52535;BME280;38443;53.164;5.802;2023-07-20T00:40:35;101615.09;;;12.50;100.00
52535;BME280;38443;53.164;5.802;2023-07-20T00:43:01;101613.38;;;12.47;100.00
52535;BME280;38443;53.164;5.802;2023-07-20T00:45:27;101615.13;;;12.48;100.00
52535;BME280;38443;53.164;5.802;2023-07-20T00:47:53;101613.41;;;12.46;100.00
52535;BME280;38443;53.164;5.802;2023-07-20T00:50:19;101601.00;;;12.40;100.00
52535;BME280;38443;53.164;5.802;2023-07-20T00:52:45;101606.47;;;12.37;100.00
52535;BME280;38443;53.164;5.802;2023-07-20T00:55:11;101609.22;;;12.34;100.00
52535;BME280;38443;53.164;5.802;2023-07-20T00:57:36;101602.09;;;12.33;100.00
52535;BME280;38443;53.164;5.802;2023-07-20T01:00:03;101600.34;;;12.30;100.00
52535;BME280;38443;53.164;5.802;2023-07-20T01:02:28;101612.97;;;12.27;100.00
52535;BME280;38443;53.164;5.802;2023-07-20T01:04:54;101611.22;;;12.24;100.00
52535;BME280;38443;53.164;5.802;2023-07-20T01:09:53;101607.66;;;12.24;100.00
52535;BME280;38443;53.164;5.802;2023-07-20T01:12:22;101608.56;;;12.23;100.00
52535;BME280;38443;53.164;5.802;2023-07-20T01:14:51;101608.66;;;12.20;100.00
52535;BME280;38443;53.164;5.802;2023-07-20T01:17:17;101606.94;;;12.17;100.00
52535;BME280;38443;53.164;5.802;2023-07-20T01:19:42;101611.34;;;12.20;100.00
52535;BME280;38443;53.164;5.802;2023-07-20T01:33:38;101611.56;;;12.10;100.00
52535;BME280;38443;53.164;5.802;2023-07-20T01:36:06;101615.16;;;12.09;100.00
52535;BME280;38443;53.164;5.802;2023-07-20T01:38:32;101610.72;;;12.08;100.00
52535;BME280;38443;53.164;5.802;2023-07-20T01:40:58;101610.72;;;12.08;100.00
52535;BME280;38443;53.164;5.802;2023-07-20T01:43:24;101611.66;;;12.06;100.00
52535;BME280;38443;53.164;5.802;2023-07-20T01:45:49;101609.00;;;12.04;100.00
52535;BME280;38443;53.164;5.802;2023-07-20T01:48:15;101610.88;;;12.01;100.00
52535;BME280;38443;53.164;5.802;2023-07-20T01:50:40;101608.31;;;11.96;100.00
52535;BME280;38443;53.164;5.802;2023-07-20T01:53:06;101611.97;;;11.92;100.00
52535;BME280;38443;53.164;5.802;2023-07-20T01:55:32;101612.06;;;11.87;100.00
52535;BME280;38443;53.164;5.802;2023-07-20T01:57:58;101606.84;;;11.81;100.00
52535;BME280;38443;53.164;5.802;2023-07-20T02:00:25;101609.50;;;11.83;100.00
52535;BME280;38443;53.164;5.802;2023-07-20T02:02:51;101598.78;;;11.81;100.00
52535;BME280;38443;53.164;5.802;2023-07-20T02:05:17;101600.56;;;11.81;100.00
52535;BME280;38443;53.164;5.802;2023-07-20T02:07:43;101602.41;;;11.78;100.00
52535;BME280;38443;53.164;5.802;2023-07-20T02:10:09;101599.81;;;11.75;100.00
52535;BME280;38443;53.164;5.802;2023-07-20T02:12:35;101602.59;;;11.71;100.00
52535;BME280;38443;53.164;5.802;2023-07-20T02:15:02;101605.31;;;11.69;100.00
52535;BME280;38443;53.164;5.802;2023-07-20T02:17:28;101603.56;;;11.67;100.00
52535;BME280;38443;53.164;5.802;2023-07-20T02:19:54;101600.00;;;11.66;100.00
52535;BME280;38443;53.164;5.802;2023-07-20T02:22:21;101601.91;;;11.61;100.00
52535;BME280;38443;53.164;5.802;2023-07-20T02:24:47;101599.22;;;11.61;100.00
52535;BME280;38443;53.164;5.802;2023-07-20T02:27:13;101602.81;;;11.58;100.00
52535;BME280;38443;53.164;5.802;2023-07-20T02:29:40;101602.03;;;11.55;100.00
52535;BME280;38443;53.164;5.802;2023-07-20T02:32:06;101603.03;;;11.51;100.00
52535;BME280;38443;53.164;5.802;2023-07-20T02:34:32;101609.34;;;11.47;100.00
52535;BME280;38443;53.164;5.802;2023-07-20T02:36:58;101606.69;;;11.45;100.00
52535;BME280;38443;53.164;5.802;2023-07-20T02:39:27;101604.97;;;11.43;100.00
52535;BME280;38443;53.164;5.802;2023-07-20T02:41:53;101603.09;;;11.46;100.00
52535;BME280;38443;53.164;5.802;2023-07-20T02:44:19;101611.19;;;11.45;100.00
52535;BME280;38443;53.164;5.802;2023-07-20T02:46:44;101608.53;;;11.43;100.00
52535;BME280;38443;53.164;5.802;2023-07-20T02:49:10;101605.03;;;11.40;100.00
52535;BME280;38443;53.164;5.802;2023-07-20T02:51:36;101614.88;;;11.39;100.00
52535;BME280;38443;53.164;5.802;2023-07-20T02:54:01;101607.81;;;11.35;100.00
52535;BME280;38443;53.164;5.802;2023-07-20T02:56:27;101607.84;;;11.32;100.00
52535;BME280;38443;53.164;5.802;2023-07-20T02:58:53;101613.28;;;11.29;100.00
52535;BME280;38443;53.164;5.802;2023-07-20T03:01:18;101615.19;;;11.22;100.00
52535;BME280;38443;53.164;5.802;2023-07-20T03:03:44;101616.16;;;11.20;100.00
52535;BME280;38443;53.164;5.802;2023-07-20T03:06:13;101615.25;;;11.21;100.00
52535;BME280;38443;53.164;5.802;2023-07-20T03:08:40;101617.03;;;11.20;100.00
52535;BME280;38443;53.164;5.802;2023-07-20T03:11:07;101617.06;;;11.18;100.00
52535;BME280;38443;53.164;5.802;2023-07-20T03:13:32;101625.13;;;11.18;100.00
52535;BME280;38443;53.164;5.802;2023-07-20T03:15:59;101630.50;;;11.17;100.00
52535;BME280;38443;53.164;5.802;2023-07-20T03:18:24;101622.47;;;11.17;100.00
52535;BME280;38443;53.164;5.802;2023-07-20T03:20:50;101622.47;;;11.15;100.00
52535;BME280;38443;53.164;5.802;2023-07-20T03:23:16;101629.69;;;11.12;100.00
52535;BME280;38443;53.164;5.802;2023-07-20T03:25:42;101623.44;;;11.13;100.00
52535;BME280;38443;53.164;5.802;2023-07-20T03:28:08;101621.63;;;11.13;100.00
52535;BME280;38443;53.164;5.802;2023-07-20T03:30:34;101632.44;;;11.09;100.00
52535;BME280;38443;53.164;5.802;2023-07-20T03:33:00;101623.59;;;11.04;100.00
52535;BME280;38443;53.164;5.802;2023-07-20T03:35:26;101626.38;;;10.97;100.00
52535;BME280;38443;53.164;5.802;2023-07-20T03:37:51;101630.91;;;10.94;100.00
52535;BME280;38443;53.164;5.802;2023-07-20T03:40:17;101631.84;;;10.91;100.00
52535;BME280;38443;53.164;5.802;2023-07-20T03:42:43;101624.69;;;10.92;100.00
52535;BME280;38443;53.164;5.802;2023-07-20T03:45:09;101633.53;;;10.98;100.00
52535;BME280;38443;53.164;5.802;2023-07-20T03:47:35;101625.44;;;11.00;100.00
52535;BME280;38443;53.164;5.802;2023-07-20T03:50:00;101633.44;;;11.03;100.00
52535;BME280;38443;53.164;5.802;2023-07-20T03:52:26;101627.13;;;11.06;100.00
52535;BME280;38443;53.164;5.802;2023-07-20T03:54:51;101619.91;;;11.09;100.00
52535;BME280;38443;53.164;5.802;2023-07-20T03:57:17;101627.00;;;11.12;100.00
52535;BME280;38443;53.164;5.802;2023-07-20T03:59:45;101621.66;;;11.12;100.00
52535;BME280;38443;53.164;5.802;2023-07-20T04:02:10;101620.75;;;11.13;100.00
52535;BME280;38443;53.164;5.802;2023-07-20T04:04:36;101621.59;;;11.15;100.00
52535;BME280;38443;53.164;5.802;2023-07-20T04:07:01;101625.19;;;11.14;100.00
52535;BME280;38443;53.164;5.802;2023-07-20T04:09:27;101624.41;;;11.09;100.00
52535;BME280;38443;53.164;5.802;2023-07-20T04:11:54;101623.47;;;11.10;100.00
52535;BME280;38443;53.164;5.802;2023-07-20T04:14:20;101619.00;;;11.10;100.00
52535;BME280;38443;53.164;5.802;2023-07-20T04:16:48;101627.88;;;11.12;100.00
52535;BME280;38443;53.164;5.802;2023-07-20T04:19:14;101632.38;;;11.10;100.00
52535;BME280;38443;53.164;5.802;2023-07-20T04:21:40;101630.53;;;11.14;100.00
52535;BME280;38443;53.164;5.802;2023-07-20T04:24:07;101618.97;;;11.12;100.00
52535;BME280;38443;53.164;5.802;2023-07-20T04:26:32;101618.97;;;11.12;100.00
52535;BME280;38443;53.164;5.802;2023-07-20T04:28:57;101627.88;;;11.12;100.00
52535;BME280;38443;53.164;5.802;2023-07-20T04:31:24;101629.69;;;11.12;100.00
52535;BME280;38443;53.164;5.802;2023-07-20T04:33:50;101634.16;;;11.13;100.00
52535;BME280;38443;53.164;5.802;2023-07-20T04:36:16;101638.53;;;11.17;100.00
52535;BME280;38443;53.164;5.802;2023-07-20T04:38:45;101631.38;;;11.17;100.00
52535;BME280;38443;53.164;5.802;2023-07-20T04:41:11;101646.44;;;11.23;100.00
52535;BME280;38443;53.164;5.802;2023-07-20T04:43:44;101657.09;;;11.26;100.00
52535;BME280;38443;53.164;5.802;2023-07-20T04:46:10;101654.34;;;11.31;100.00
52535;BME280;38443;53.164;5.802;2023-07-20T04:48:36;101646.22;;;11.35;100.00
52535;BME280;38443;53.164;5.802;2023-07-20T04:51:02;101659.50;;;11.42;100.00
52535;BME280;38443;53.164;5.802;2023-07-20T04:53:28;101659.38;;;11.46;100.00
52535;BME280;38443;53.164;5.802;2023-07-20T04:55:54;101658.38;;;11.53;100.00
52535;BME280;38443;53.164;5.802;2023-07-20T04:58:21;101651.91;;;11.62;100.00
52535;BME280;38443;53.164;5.802;2023-07-20T05:00:51;101653.56;;;11.69;100.00
52535;BME280;38443;53.164;5.802;2023-07-20T05:03:17;101657.97;;;11.73;100.00
52535;BME280;38443;53.164;5.802;2023-07-20T05:05:43;101665.00;;;11.79;100.00
52535;BME280;38443;53.164;5.802;2023-07-20T05:08:09;101663.09;;;11.84;100.00
52535;BME280;38443;53.164;5.802;2023-07-20T05:10:35;101669.28;;;11.88;100.00
52535;BME280;38443;53.164;5.802;2023-07-20T05:13:00;101660.22;;;11.95;100.00
52535;BME280;38443;53.164;5.802;2023-07-20T05:15:26;101663.63;;;12.03;100.00
52535;BME280;38443;53.164;5.802;2023-07-20T05:17:51;101664.34;;;12.10;100.00
52535;BME280;38443;53.164;5.802;2023-07-20T05:20:16;101662.41;;;12.16;100.00
52535;BME280;38443;53.164;5.802;2023-07-20T05:22:42;101664.94;;;12.23;100.00
52535;BME280;38443;53.164;5.802;2023-07-20T05:25:09;101663.88;;;12.31;100.00
52535;BME280;38443;53.164;5.802;2023-07-20T05:27:36;101669.91;;;12.41;100.00
52535;BME280;38443;53.164;5.802;2023-07-20T05:30:02;101673.28;;;12.49;100.00
52535;BME280;38443;53.164;5.802;2023-07-20T05:32:28;101675.66;;;12.62;100.00
52535;BME280;38443;53.164;5.802;2023-07-20T05:34:54;101670.88;;;12.74;100.00
52535;BME280;38443;53.164;5.802;2023-07-20T05:37:19;101666.94;;;12.89;100.00
52535;BME280;38443;53.164;5.802;2023-07-20T05:39:45;101668.31;;;13.04;100.00
52535;BME280;38443;53.164;5.802;2023-07-20T05:42:10;101667.94;;;13.18;100.00
52535;BME280;38443;53.164;5.802;2023-07-20T05:44:35;101660.38;;;13.34;100.00
52535;BME280;38443;53.164;5.802;2023-07-20T05:47:01;101660.03;;;13.46;100.00
52535;BME280;38443;53.164;5.802;2023-07-20T05:49:27;101664.16;;;13.60;100.00
52535;BME280;38443;53.164;5.802;2023-07-20T05:51:54;101654.97;;;13.67;100.00
52535;BME280;38443;53.164;5.802;2023-07-20T05:54:20;101659.41;;;13.69;100.00
52535;BME280;38443;53.164;5.802;2023-07-20T05:56:45;101655.75;;;13.70;100.00
52535;BME280;38443;53.164;5.802;2023-07-20T05:59:11;101653.03;;;13.72;100.00
52535;BME280;38443;53.164;5.802;2023-07-20T06:01:37;101653.88;;;13.74;100.00
52535;BME280;38443;53.164;5.802;2023-07-20T06:04:02;101662.75;;;13.77;100.00
52535;BME280;38443;53.164;5.802;2023-07-20T06:06:28;101659.06;;;13.80;100.00
52535;BME280;38443;53.164;5.802;2023-07-20T06:08:54;101655.34;;;13.84;100.00
52535;BME280;38443;53.164;5.802;2023-07-20T06:11:19;101656.94;;;13.91;100.00
52535;BME280;38443;53.164;5.802;2023-07-20T06:13:45;101654.97;;;13.96;100.00
52535;BME280;38443;53.164;5.802;2023-07-20T06:16:10;101657.41;;;14.06;100.00
52535;BME280;38443;53.164;5.802;2023-07-20T06:18:36;101652.66;;;14.14;100.00
52535;BME280;38443;53.164;5.802;2023-07-20T06:21:01;101639.91;;;14.19;100.00
52535;BME280;38443;53.164;5.802;2023-07-20T06:23:27;101640.47;;;14.30;100.00
52535;BME280;38443;53.164;5.802;2023-07-20T06:25:52;101644.66;;;14.39;100.00
52535;BME280;38443;53.164;5.802;2023-07-20T06:28:18;101634.63;;;14.44;100.00
52535;BME280;38443;53.164;5.802;2023-07-20T06:30:43;101644.28;;;14.51;100.00
52535;BME280;38443;53.164;5.802;2023-07-20T06:33:09;101636.91;;;14.58;100.00
52535;BME280;38443;53.164;5.802;2023-07-20T06:35:34;101643.91;;;14.64;100.00
52535;BME280;38443;53.164;5.802;2023-07-20T06:38:01;101646.59;;;14.90;100.00
52535;BME280;38443;53.164;5.802;2023-07-20T06:40:28;101640.38;;;15.87;100.00
52535;BME280;38443;53.164;5.802;2023-07-20T06:42:53;101639.44;;;16.78;100.00
52535;BME280;38443;53.164;5.802;2023-07-20T06:45:18;101624.44;;;17.53;100.00
52535;BME280;38443;53.164;5.802;2023-07-20T06:47:44;101623.38;;;18.14;100.00
52535;BME280;38443;53.164;5.802;2023-07-20T06:50:10;101622.50;;;18.69;100.00
52535;BME280;38443;53.164;5.802;2023-07-20T06:52:36;101619.59;;;19.08;100.00
52535;BME280;38443;53.164;5.802;2023-07-20T06:55:01;101636.41;;;18.98;100.00
52535;BME280;38443;53.164;5.802;2023-07-20T06:57:27;101633.19;;;18.36;100.00
52535;BME280;38443;53.164;5.802;2023-07-20T06:59:52;101622.47;;;17.96;100.00
52535;BME280;38443;53.164;5.802;2023-07-20T07:02:21;101625.34;;;18.29;100.00
52535;BME280;38443;53.164;5.802;2023-07-20T07:04:47;101619.50;;;18.56;100.00
52535;BME280;38443;53.164;5.802;2023-07-20T07:07:15;101627.31;;;19.16;100.00
52535;BME280;38443;53.164;5.802;2023-07-20T07:09:41;101623.63;;;19.68;100.00
52535;BME280;38443;53.164;5.802;2023-07-20T07:12:07;101633.41;;;19.88;100.00
52535;BME280;38443;53.164;5.802;2023-07-20T07:14:32;101638.00;;;20.03;100.00
52535;BME280;38443;53.164;5.802;2023-07-20T07:16:58;101640.59;;;19.73;100.00
52535;BME280;38443;53.164;5.802;2023-07-20T07:19:23;101636.69;;;19.95;100.00
52535;BME280;38443;53.164;5.802;2023-07-20T07:21:48;101635.19;;;19.89;100.00
52535;BME280;38443;53.164;5.802;2023-07-20T07:24:14;101633.94;;;19.79;100.00
52535;BME280;38443;53.164;5.802;2023-07-20T07:26:39;101628.97;;;19.87;100.00
52535;BME280;38443;53.164;5.802;2023-07-20T07:29:05;101631.84;;;20.31;100.00
52535;BME280;38443;53.164;5.802;2023-07-20T07:31:30;101636.22;;;20.66;100.00
52535;BME280;38443;53.164;5.802;2023-07-20T07:33:56;101633.75;;;21.07;100.00
52535;BME280;38443;53.164;5.802;2023-07-20T07:36:22;101632.63;;;21.26;100.00
52535;BME280;38443;53.164;5.802;2023-07-20T07:38:49;101632.88;;;21.51;100.00
52535;BME280;38443;53.164;5.802;2023-07-20T07:41:14;101632.50;;;21.58;100.00
52535;BME280;38443;53.164;5.802;2023-07-20T07:43:40;101635.41;;;21.55;100.00
52535;BME280;38443;53.164;5.802;2023-07-20T07:46:05;101644.56;;;21.68;100.00
52535;BME280;38443;53.164;5.802;2023-07-20T07:48:30;101634.41;;;21.41;100.00
52535;BME280;38443;53.164;5.802;2023-07-20T07:50:56;101637.47;;;21.51;100.00
52535;BME280;38443;53.164;5.802;2023-07-20T07:53:21;101644.25;;;21.58;100.00
52535;BME280;38443;53.164;5.802;2023-07-20T07:55:49;101641.66;;;21.26;100.00
52535;BME280;38443;53.164;5.802;2023-07-20T07:58:15;101642.00;;;21.65;100.00
52535;BME280;38443;53.164;5.802;2023-07-20T08:00:41;101646.59;;;21.79;100.00
52535;BME280;38443;53.164;5.802;2023-07-20T08:03:06;101653.75;;;21.06;100.00
52535;BME280;38443;53.164;5.802;2023-07-20T08:05:33;101653.41;;;20.50;100.00
52535;BME280;38443;53.164;5.802;2023-07-20T08:07:59;101657.97;;;20.50;100.00
52535;BME280;38443;53.164;5.802;2023-07-20T08:10:24;101651.78;;;20.94;100.00
52535;BME280;38443;53.164;5.802;2023-07-20T08:12:50;101646.31;;;21.24;100.00
52535;BME280;38443;53.164;5.802;2023-07-20T08:15:16;101644.56;;;21.68;100.00
52535;BME280;38443;53.164;5.802;2023-07-20T08:17:42;101634.59;;;22.10;100.00
52535;BME280;38443;53.164;5.802;2023-07-20T08:20:09;101641.50;;;22.16;100.00
52535;BME280;38443;53.164;5.802;2023-07-20T08:22:38;101644.19;;;22.44;100.00
52535;BME280;38443;53.164;5.802;2023-07-20T08:25:07;101643.06;;;22.20;100.00
52535;BME280;38443;53.164;5.802;2023-07-20T08:27:33;101648.09;;;21.25;100.00
52535;BME280;38443;53.164;5.802;2023-07-20T08:29:58;101653.09;;;20.25;100.00
52535;BME280;38443;53.164;5.802;2023-07-20T08:32:24;101652.91;;;19.45;100.00
52535;BME280;38443;53.164;5.802;2023-07-20T08:34:50;101649.50;;;18.89;100.00
52535;BME280;38443;53.164;5.802;2023-07-20T08:37:15;101660.97;;;18.58;100.00
52535;BME280;38443;53.164;5.802;2023-07-20T08:39:41;101657.81;;;19.04;100.00
52535;BME280;38443;53.164;5.802;2023-07-20T08:42:06;101645.94;;;19.90;100.00
52535;BME280;38443;53.164;5.802;2023-07-20T08:44:33;101643.81;;;20.61;100.00
52535;BME280;38443;53.164;5.802;2023-07-20T08:47:00;101645.66;;;20.90;100.00
52535;BME280;38443;53.164;5.802;2023-07-20T08:49:27;101647.19;;;20.48;100.00
52535;BME280;38443;53.164;5.802;2023-07-20T08:51:53;101657.03;;;20.19;100.00
52535;BME280;38443;53.164;5.802;2023-07-20T08:54:19;101651.84;;;20.46;100.00
52535;BME280;38443;53.164;5.802;2023-07-20T08:56:45;101653.16;;;20.87;100.00
52535;BME280;38443;53.164;5.802;2023-07-20T08:59:12;101642.81;;;21.22;100.00
52535;BME280;38443;53.164;5.802;2023-07-20T09:01:41;101645.28;;;21.41;100.00
52535;BME280;38443;53.164;5.802;2023-07-20T09:04:06;101647.22;;;21.25;100.00
52535;BME280;38443;53.164;5.802;2023-07-20T09:06:32;101641.06;;;21.51;100.00
52535;BME280;38443;53.164;5.802;2023-07-20T09:08:59;101650.47;;;21.01;100.00
52535;BME280;38443;53.164;5.802;2023-07-20T09:11:24;101647.47;;;20.44;100.00
52535;BME280;38443;53.164;5.802;2023-07-20T09:14:10;101657.97;;;19.69;100.00
52535;BME280;38443;53.164;5.802;2023-07-20T09:16:55;101657.72;;;19.05;100.00
52535;BME280;38443;53.164;5.802;2023-07-20T09:19:21;101661.41;;;19.04;100.00
52535;BME280;38443;53.164;5.802;2023-07-20T09:21:51;101659.00;;;19.66;100.00
52535;BME280;38443;53.164;5.802;2023-07-20T09:24:19;101663.34;;;20.20;100.00
52535;BME280;38443;53.164;5.802;2023-07-20T09:26:46;101666.44;;;20.61;100.00
52535;BME280;38443;53.164;5.802;2023-07-20T09:29:13;101658.44;;;21.04;100.00
52535;BME280;38443;53.164;5.802;2023-07-20T09:31:39;101653.84;;;21.35;100.00
52535;BME280;38443;53.164;5.802;2023-07-20T09:34:07;101653.13;;;21.62;100.00
52535;BME280;38443;53.164;5.802;2023-07-20T09:36:34;101665.28;;;21.70;100.00
52535;BME280;38443;53.164;5.802;2023-07-20T09:39:01;101659.44;;;21.62;100.00
52535;BME280;38443;53.164;5.802;2023-07-20T09:41:41;101654.13;;;21.75;94.02
52535;BME280;38443;53.164;5.802;2023-07-20T09:44:10;101659.97;;;21.39;100.00
52535;BME280;38443;53.164;5.802;2023-07-20T09:46:46;101675.28;;;20.49;97.80
52535;BME280;38443;53.164;5.802;2023-07-20T09:49:12;101670.50;;;19.89;100.00
52535;BME280;38443;53.164;5.802;2023-07-20T09:51:38;101673.84;;;19.43;100.00
52535;BME280;38443;53.164;5.802;2023-07-20T09:54:04;101680.38;;;19.22;100.00
52535;BME280;38443;53.164;5.802;2023-07-20T09:56:30;101668.94;;;19.50;100.00
52535;BME280;38443;53.164;5.802;2023-07-20T09:58:58;101664.81;;;19.93;100.00
52535;BME280;38443;53.164;5.802;2023-07-20T10:01:23;101661.59;;;20.19;100.00
52535;BME280;38443;53.164;5.802;2023-07-20T10:03:53;101655.63;;;20.12;100.00
52535;BME280;38443;53.164;5.802;2023-07-20T10:06:22;101661.47;;;20.04;100.00
52535;BME280;38443;53.164;5.802;2023-07-20T10:08:49;101658.94;;;19.68;100.00
52535;BME280;38443;53.164;5.802;2023-07-20T10:11:17;101661.06;;;19.28;100.00
52535;BME280;38443;53.164;5.802;2023-07-20T10:13:44;101660.38;;;19.07;100.00
52535;BME280;38443;53.164;5.802;2023-07-20T10:16:15;101663.72;;;18.76;100.00
52535;BME280;38443;53.164;5.802;2023-07-20T10:21:23;101667.63;;;18.52;100.00
52535;BME280;38443;53.164;5.802;2023-07-20T10:23:49;101666.97;;;18.84;100.00
52535;BME280;38443;53.164;5.802;2023-07-20T10:26:14;101655.97;;;19.22;100.00
52535;BME280;38443;53.164;5.802;2023-07-20T10:28:41;101661.72;;;19.66;100.00
52535;BME280;38443;53.164;5.802;2023-07-20T10:31:12;101657.63;;;19.92;100.00
52535;BME280;38443;53.164;5.802;2023-07-20T10:33:38;101645.50;;;19.98;100.00
52535;BME280;38443;53.164;5.802;2023-07-20T10:36:04;101652.38;;;20.05;100.00
52535;BME280;38443;53.164;5.802;2023-07-20T10:41:03;101653.50;;;19.85;100.00
52535;BME280;38443;53.164;5.802;2023-07-20T10:43:29;101650.44;;;19.91;100.00
52535;BME280;38443;53.164;5.802;2023-07-20T10:45:55;101652.81;;;20.13;100.00
52535;BME280;38443;53.164;5.802;2023-07-20T10:48:22;101653.09;;;20.09;100.00
52535;BME280;38443;53.164;5.802;2023-07-20T10:51:13;101647.78;;;19.90;100.00
52535;BME280;38443;53.164;5.802;2023-07-20T10:53:44;101658.28;;;19.80;100.00
52535;BME280;38443;53.164;5.802;2023-07-20T10:56:14;101656.53;;;19.62;100.00
52535;BME280;38443;53.164;5.802;2023-07-20T10:58:40;101655.50;;;19.64;100.00
52535;BME280;38443;53.164;5.802;2023-07-20T11:01:14;101644.03;;;19.77;100.00
52535;BME280;38443;53.164;5.802;2023-07-20T11:03:40;101651.31;;;20.24;100.00
52535;BME280;38443;53.164;5.802;2023-07-20T11:08:56;101646.53;;;21.21;91.83
52535;BME280;38443;53.164;5.802;2023-07-20T11:11:29;101640.19;;;21.21;98.50
52535;BME280;38443;53.164;5.802;2023-07-20T11:13:59;101650.91;;;20.94;94.60
52535;BME280;38443;53.164;5.802;2023-07-20T11:21:43;101651.63;;;20.97;93.77
52535;BME280;38443;53.164;5.802;2023-07-20T11:24:09;101654.13;;;21.00;94.51
52535;BME280;38443;53.164;5.802;2023-07-20T11:29:07;101650.56;;;21.00;89.98
52535;BME280;38443;53.164;5.802;2023-07-20T11:31:35;101645.84;;;20.87;87.03
52535;BME280;38443;53.164;5.802;2023-07-20T11:34:01;101657.53;;;20.58;91.02
52535;BME280;38443;53.164;5.802;2023-07-20T11:36:26;101654.41;;;20.49;93.07
52535;BME280;38443;53.164;5.802;2023-07-20T11:38:51;101636.63;;;20.90;92.59
52535;BME280;38443;53.164;5.802;2023-07-20T11:41:17;101634.66;;;21.22;85.63
52535;BME280;38443;53.164;5.802;2023-07-20T11:43:42;101641.00;;;20.92;84.78
52535;BME280;38443;53.164;5.802;2023-07-20T11:46:08;101641.31;;;20.72;86.49
52535;BME280;38443;53.164;5.802;2023-07-20T11:48:34;101633.50;;;20.66;84.74
52535;BME280;38443;53.164;5.802;2023-07-20T11:50:59;101640.00;;;20.79;87.24
52535;BME280;38443;53.164;5.802;2023-07-20T11:53:25;101638.34;;;21.21;85.65
52535;BME280;38443;53.164;5.802;2023-07-20T11:55:51;101636.34;;;21.25;82.70
52535;BME280;38443;53.164;5.802;2023-07-20T11:58:17;101639.22;;;21.22;83.51
52535;BME280;38443;53.164;5.802;2023-07-20T12:00:44;101629.97;;;21.24;82.76
52535;BME280;38443;53.164;5.802;2023-07-20T12:03:09;101628.97;;;21.41;81.80
52535;BME280;38443;53.164;5.802;2023-07-20T12:05:38;101628.78;;;21.59;79.14
52535;BME280;38443;53.164;5.802;2023-07-20T12:08:04;101625.84;;;21.33;76.79
52535;BME280;38443;53.164;5.802;2023-07-20T12:10:29;101628.56;;;21.33;78.34
52535;BME280;38443;53.164;5.802;2023-07-20T12:13:01;101626.09;;;21.28;74.30
52535;BME280;38443;53.164;5.802;2023-07-20T12:15:26;101631.16;;;21.20;79.12
52535;BME280;38443;53.164;5.802;2023-07-20T12:17:56;101639.75;;;20.98;77.34
52535;BME280;38443;53.164;5.802;2023-07-20T12:22:51;101636.69;;;20.88;77.82
52535;BME280;38443;53.164;5.802;2023-07-20T12:25:17;101637.97;;;20.83;79.21
52535;BME280;38443;53.164;5.802;2023-07-20T12:27:45;101623.44;;;21.12;75.31
52535;BME280;38443;53.164;5.802;2023-07-20T12:30:12;101641.88;;;20.93;77.06
52535;BME280;38443;53.164;5.802;2023-07-20T12:32:38;101636.44;;;20.93;74.71
52535;BME280;38443;53.164;5.802;2023-07-20T12:35:04;101628.91;;;20.82;73.38
52535;BME280;38443;53.164;5.802;2023-07-20T12:37:29;101630.72;;;20.98;73.58
52535;BME280;38443;53.164;5.802;2023-07-20T12:39:55;101628.03;;;21.12;72.77
52535;BME280;38443;53.164;5.802;2023-07-20T12:42:20;101617.28;;;21.25;72.75
52535;BME280;38443;53.164;5.802;2023-07-20T12:47:11;101615.94;;;21.02;69.24
52535;BME280;38443;53.164;5.802;2023-07-20T12:49:36;101620.59;;;21.00;68.54
52535;BME280;38443;53.164;5.802;2023-07-20T12:52:02;101616.81;;;21.02;65.83
52535;BME280;38443;53.164;5.802;2023-07-20T12:54:27;101614.38;;;20.98;67.13
52535;BME280;38443;53.164;5.802;2023-07-20T12:56:52;101616.72;;;21.04;67.69
52535;BME280;38443;53.164;5.802;2023-07-20T12:59:18;101615.34;;;20.97;67.33
52535;BME280;38443;53.164;5.802;2023-07-20T13:01:43;101608.19;;;21.10;70.11
52535;BME280;38443;53.164;5.802;2023-07-20T13:04:09;101608.91;;;21.28;69.28
52535;BME280;38443;53.164;5.802;2023-07-20T13:06:35;101617.16;;;21.41;67.98
52535;BME280;38443;53.164;5.802;2023-07-20T13:09:00;101602.44;;;21.74;67.65
52535;BME280;38443;53.164;5.802;2023-07-20T13:11:26;101607.06;;;21.86;66.89